createdAt,value
2019-05-21T00:00:37.483Z,26.60
2019-05-21T00:03:06.448Z,25.47
2019-05-21T00:05:35.363Z,25.70
2019-05-21T00:08:04.304Z,26.40
2019-05-21T00:10:33.232Z,26.20
2019-05-21T00:13:02.142Z,24.80
2019-05-21T00:15:31.051Z,31.73
2019-05-21T00:17:59.969Z,27.40
2019-05-21T00:20:28.852Z,25.27
2019-05-21T00:22:57.753Z,24.40
2019-05-21T00:25:26.639Z,25.40
2019-05-21T00:27:55.561Z,26.40
2019-05-21T00:31:01.198Z,25.17
2019-05-21T00:34:06.530Z,25.93
2019-05-21T00:37:12.941Z,24.90
2019-05-21T00:40:18.547Z,24.33
2019-05-21T00:42:47.521Z,21.63
2019-05-21T00:45:16.384Z,22.93
2019-05-21T00:47:45.290Z,22.73
2019-05-21T00:50:14.219Z,22.73
2019-05-21T00:52:43.112Z,22.00
2019-05-21T00:55:12.044Z,21.67
2019-05-21T00:57:40.976Z,21.33
2019-05-21T01:00:10.247Z,20.90
2019-05-21T01:02:38.966Z,21.40
2019-05-21T01:05:07.923Z,21.30
2019-05-21T01:07:36.840Z,21.70
2019-05-21T01:10:05.765Z,21.30
2019-05-21T01:12:34.782Z,21.87
2019-05-21T01:15:03.739Z,21.83
2019-05-21T01:17:32.645Z,22.70
2019-05-21T01:20:01.585Z,22.33
2019-05-21T01:22:30.491Z,22.63
2019-05-21T01:24:59.412Z,21.97
2019-05-21T01:27:28.331Z,22.67
2019-05-21T01:29:57.230Z,22.20
2019-05-21T01:32:26.173Z,27.15
2019-05-21T01:34:55.077Z,23.30
2019-05-21T01:37:23.979Z,22.30
2019-05-21T01:39:52.904Z,22.63
2019-05-21T01:42:21.812Z,22.20
2019-05-21T01:44:50.731Z,24.17
2019-05-21T01:47:19.647Z,23.70
2019-05-21T01:49:48.573Z,23.57
2019-05-21T01:52:17.500Z,23.17
2019-05-21T01:54:46.393Z,24.60
2019-05-21T01:57:15.282Z,24.37
2019-05-21T01:59:44.202Z,24.43
2019-05-21T02:02:13.109Z,25.20
2019-05-21T02:04:42.029Z,25.33
2019-05-21T02:07:10.952Z,24.37
2019-05-21T02:09:57.706Z,24.33
2019-05-21T02:12:26.626Z,24.17
2019-05-21T02:14:55.552Z,30.20
2019-05-21T02:17:24.439Z,25.53
2019-05-21T02:19:53.354Z,23.87
2019-05-21T02:22:22.254Z,22.70
2019-05-21T02:24:51.212Z,23.03
2019-05-21T02:27:20.116Z,23.03
2019-05-21T02:29:49.016Z,23.40
2019-05-21T02:32:17.912Z,23.73
2019-05-21T02:34:46.826Z,25.73
2019-05-21T02:37:15.721Z,25.57
2019-05-21T02:39:44.631Z,24.87
2019-05-21T02:42:13.577Z,25.60
2019-05-21T02:44:42.535Z,27.10
2019-05-21T02:47:11.426Z,26.87
2019-05-21T02:49:40.489Z,25.27
2019-05-21T02:52:09.252Z,25.80
2019-05-21T02:54:41.550Z,24.20
2019-05-21T02:57:07.108Z,29.42
2019-05-21T02:59:36.025Z,25.40
2019-05-21T03:02:18.645Z,25.03
2019-05-21T03:04:47.538Z,24.03
2019-05-21T03:07:19.342Z,30.27
2019-05-21T03:09:48.725Z,25.20
2019-05-21T03:12:17.640Z,25.43
2019-05-21T03:14:46.585Z,26.90
2019-05-21T03:17:15.496Z,26.67
2019-05-21T03:19:44.408Z,27.83
2019-05-21T03:22:13.338Z,27.17
2019-05-21T03:24:42.244Z,26.83
2019-05-21T03:27:11.170Z,25.17
2019-05-21T03:29:40.066Z,25.27
2019-05-21T03:32:09.029Z,24.63
2019-05-21T03:34:37.958Z,24.00
2019-05-21T03:37:06.993Z,24.17
2019-05-21T03:39:35.897Z,22.87
2019-05-21T03:42:04.910Z,22.90
2019-05-21T03:44:33.797Z,22.10
2019-05-21T03:47:02.741Z,22.37
2019-05-21T03:49:31.915Z,27.98
2019-05-21T03:52:00.821Z,22.93
2019-05-21T03:54:29.746Z,23.03
2019-05-21T03:56:58.648Z,23.60
2019-05-21T03:59:27.548Z,23.77
2019-05-21T04:01:56.451Z,23.70
2019-05-21T04:04:25.365Z,24.33
2019-05-21T04:06:54.323Z,23.23
2019-05-21T04:09:23.277Z,23.07
2019-05-21T04:11:53.304Z,23.87
2019-05-21T04:14:31.824Z,24.23
2019-05-21T04:17:05.552Z,23.67
2019-05-21T04:19:37.307Z,24.63
2019-05-21T04:22:07.177Z,23.37
2019-05-21T04:24:36.064Z,29.75
2019-05-21T04:27:05.077Z,24.47
2019-05-21T04:29:34.039Z,23.33
2019-05-21T04:32:03.002Z,23.47
2019-05-21T04:34:31.911Z,24.77
2019-05-21T04:37:10.726Z,24.47
2019-05-21T04:39:29.758Z,25.00
2019-05-21T04:41:58.652Z,25.33
2019-05-21T04:44:27.563Z,24.57
2019-05-21T04:46:56.453Z,24.40
2019-05-21T04:49:25.375Z,24.17
2019-05-21T04:51:54.276Z,24.77
2019-05-21T04:54:23.173Z,24.57
2019-05-21T04:56:52.107Z,25.53
2019-05-21T04:59:21.009Z,24.23
2019-05-21T05:01:49.926Z,24.17
2019-05-21T05:04:21.714Z,24.73
2019-05-21T05:06:47.781Z,24.03
2019-05-21T05:09:16.675Z,30.08
2019-05-21T05:11:45.595Z,26.27
2019-05-21T05:14:14.538Z,25.20
2019-05-21T05:16:43.473Z,24.67
2019-05-21T05:19:12.400Z,25.07
2019-05-21T05:21:41.284Z,26.13
2019-05-21T05:24:10.215Z,26.07
2019-05-21T05:26:39.124Z,24.80
2019-05-21T05:29:08.234Z,26.10
2019-05-21T05:31:37.173Z,23.97
2019-05-21T05:34:06.181Z,24.87
2019-05-21T05:36:35.081Z,23.70
2019-05-21T05:39:05.235Z,23.40
2019-05-21T05:41:34.135Z,26.63
2019-05-21T05:44:03.016Z,22.33
2019-05-21T05:46:31.938Z,26.20
2019-05-21T05:49:07.838Z,23.43
2019-05-21T05:51:36.735Z,22.77
2019-05-21T05:54:07.686Z,23.50
2019-05-21T05:56:34.650Z,21.03
2019-05-21T05:59:03.623Z,23.10
2019-05-21T06:01:32.531Z,21.87
2019-05-21T06:04:01.442Z,21.67
2019-05-21T06:06:30.341Z,25.03
2019-05-21T06:08:59.269Z,25.10
2019-05-21T06:11:28.163Z,26.80
2019-05-21T06:13:57.137Z,25.37
2019-05-21T06:16:25.998Z,25.57
2019-05-21T06:18:54.945Z,27.10
2019-05-21T06:21:23.863Z,29.50
2019-05-21T06:23:52.757Z,28.17
2019-05-21T06:26:21.668Z,27.57
2019-05-21T06:28:50.596Z,29.03
2019-05-21T06:31:19.518Z,26.83
2019-05-21T06:33:48.441Z,26.67
2019-05-21T06:36:17.361Z,26.57
2019-05-21T06:38:46.244Z,28.40
2019-05-21T06:41:15.286Z,28.13
2019-05-21T06:43:44.096Z,25.90
2019-05-21T06:46:13.020Z,27.20
2019-05-21T06:48:41.929Z,26.33
2019-05-21T06:51:10.840Z,27.60
2019-05-21T06:53:39.731Z,27.30
2019-05-21T06:56:08.804Z,24.90
2019-05-21T06:58:37.724Z,23.77
2019-05-21T07:01:06.756Z,23.10
2019-05-21T07:03:35.635Z,23.47
2019-05-21T07:06:04.577Z,22.53
2019-05-21T07:08:35.222Z,22.93
2019-05-21T07:11:02.725Z,22.70
2019-05-21T07:13:34.460Z,22.07
2019-05-21T07:16:05.283Z,21.27
2019-05-21T07:18:34.651Z,22.10
2019-05-21T07:21:03.779Z,22.17
2019-05-21T07:23:32.941Z,21.53
2019-05-21T07:26:02.274Z,21.57
2019-05-21T07:28:35.671Z,22.53
2019-05-21T07:31:03.444Z,21.27
2019-05-21T07:33:35.350Z,21.60
2019-05-21T07:36:10.252Z,21.80
2019-05-21T07:38:52.831Z,21.23
2019-05-21T07:41:11.320Z,20.30
2019-05-21T07:43:42.368Z,20.40
2019-05-21T07:46:11.993Z,20.87
2019-05-21T07:48:41.297Z,20.60
2019-05-21T07:51:13.984Z,20.13
2019-05-21T07:53:43.951Z,19.00
2019-05-21T07:56:13.321Z,21.00
2019-05-21T07:58:42.443Z,20.37
2019-05-21T08:01:11.566Z,21.23
2019-05-21T08:03:40.785Z,22.27
2019-05-21T08:06:10.057Z,20.73
2019-05-21T08:09:10.912Z,22.60
2019-05-21T08:11:22.618Z,23.37
2019-05-21T08:13:51.706Z,23.20
2019-05-21T08:16:20.918Z,24.23
2019-05-21T08:18:50.059Z,24.80
2019-05-21T08:21:19.236Z,24.93
2019-05-21T08:23:48.587Z,23.87
2019-05-21T08:26:19.315Z,23.70
2019-05-21T08:28:48.391Z,22.77
2019-05-21T08:31:19.533Z,27.93
2019-05-21T08:33:47.005Z,23.17
2019-05-21T08:36:16.144Z,22.73
2019-05-21T08:38:45.237Z,22.63
2019-05-21T08:41:16.937Z,22.57
2019-05-21T08:43:46.715Z,27.60
2019-05-21T08:46:16.197Z,23.33
2019-05-21T08:48:47.794Z,21.20
2019-05-21T08:51:21.698Z,22.10
2019-05-21T08:53:50.787Z,21.93
2019-05-21T08:56:20.005Z,21.50
2019-05-21T08:58:51.150Z,21.53
2019-05-21T09:01:20.245Z,21.43
2019-05-21T09:03:52.543Z,21.30
2019-05-21T09:06:21.811Z,21.23
2019-05-21T09:08:50.893Z,22.00
2019-05-21T09:11:19.980Z,21.73
2019-05-21T09:13:48.888Z,21.07
2019-05-21T09:16:17.887Z,21.27
2019-05-21T09:18:46.723Z,22.63
2019-05-21T09:21:15.718Z,21.00
2019-05-21T09:23:44.638Z,22.03
2019-05-21T09:26:13.559Z,21.10
2019-05-21T09:28:42.458Z,22.67
2019-05-21T09:31:11.374Z,21.17
2019-05-21T09:33:40.281Z,21.83
2019-05-21T09:36:09.292Z,21.07
2019-05-21T09:38:38.199Z,19.80
2019-05-21T09:41:07.329Z,20.97
2019-05-21T09:43:36.206Z,21.10
2019-05-21T09:46:05.209Z,19.60
2019-05-21T09:48:34.124Z,19.93
2019-05-21T09:51:03.074Z,20.70
2019-05-21T09:53:32.083Z,20.40
2019-05-21T09:56:20.202Z,20.50
2019-05-21T09:58:49.108Z,20.07
2019-05-21T10:01:25.316Z,19.73
2019-05-21T10:03:56.573Z,18.10
2019-05-21T10:06:25.448Z,18.10
2019-05-21T10:08:54.383Z,21.95
2019-05-21T10:11:23.299Z,16.23
2019-05-21T10:13:52.224Z,17.47
2019-05-21T10:16:21.142Z,18.63
2019-05-21T10:18:50.058Z,17.03
2019-05-21T10:21:19.007Z,17.13
2019-05-21T10:23:47.949Z,16.73
2019-05-21T10:26:16.878Z,16.97
2019-05-21T10:28:45.806Z,16.33
2019-05-21T10:31:14.729Z,17.53
2019-05-21T10:33:43.605Z,19.32
2019-05-21T10:36:12.543Z,17.37
2019-05-21T10:38:41.461Z,15.80
2019-05-21T10:41:10.391Z,16.70
2019-05-21T10:43:39.301Z,18.17
2019-05-21T10:46:08.471Z,17.60
2019-05-21T10:48:37.391Z,19.00
2019-05-21T10:51:06.448Z,18.40
2019-05-21T10:53:35.492Z,17.87
2019-05-21T10:56:04.469Z,18.67
2019-05-21T10:58:33.379Z,17.70
2019-05-21T11:01:11.610Z,17.87
2019-05-21T11:04:08.769Z,18.17
2019-05-21T11:06:37.706Z,21.00
2019-05-21T11:09:08.598Z,21.20
2019-05-21T11:11:37.524Z,20.80
2019-05-21T11:14:06.721Z,21.37
2019-05-21T11:16:35.595Z,20.27
2019-05-21T11:19:04.545Z,17.77
2019-05-21T11:21:33.467Z,19.17
2019-05-21T11:24:02.493Z,19.10
2019-05-21T11:26:31.267Z,18.17
2019-05-21T11:29:00.217Z,18.23
2019-05-21T11:31:29.129Z,19.57
2019-05-21T11:33:58.087Z,19.40
2019-05-21T11:36:26.984Z,18.37
2019-05-21T11:38:56.142Z,20.43
2019-05-21T11:41:25.036Z,18.83
2019-05-21T11:43:53.942Z,19.10
2019-05-21T11:46:22.867Z,20.03
2019-05-21T11:48:51.813Z,18.03
2019-05-21T11:51:20.754Z,18.83
2019-05-21T11:53:49.687Z,17.07
2019-05-21T11:56:19.019Z,16.10
2019-05-21T11:58:47.832Z,16.33
2019-05-21T12:01:16.843Z,16.30
2019-05-21T12:03:45.747Z,15.53
2019-05-21T12:06:14.665Z,14.87
2019-05-21T12:08:56.048Z,15.43
2019-05-21T12:11:12.587Z,14.47
2019-05-21T12:13:41.427Z,12.97
2019-05-21T12:16:10.491Z,12.03
2019-05-21T12:18:39.386Z,14.28
2019-05-21T12:21:08.419Z,12.47
2019-05-21T12:23:37.332Z,13.93
2019-05-21T12:26:06.440Z,11.50
2019-05-21T12:28:35.304Z,12.33
2019-05-21T12:31:04.284Z,12.13
2019-05-21T12:33:35.219Z,13.50
2019-05-21T12:36:02.147Z,12.83
2019-05-21T12:38:31.083Z,13.63
2019-05-21T12:40:59.962Z,12.20
2019-05-21T12:43:28.902Z,12.60
2019-05-21T12:45:57.815Z,13.23
2019-05-21T12:48:26.724Z,12.67
2019-05-21T12:50:55.626Z,13.53
2019-05-21T12:53:24.536Z,12.90
2019-05-21T12:55:53.477Z,13.20
2019-05-21T12:58:22.395Z,13.83
2019-05-21T13:00:51.298Z,13.50
2019-05-21T13:03:20.240Z,13.67
2019-05-21T13:05:49.156Z,13.87
2019-05-21T13:08:18.044Z,14.27
2019-05-21T13:10:47.250Z,14.43
2019-05-21T13:13:15.960Z,15.53
2019-05-21T13:15:44.832Z,14.77
2019-05-21T13:18:13.750Z,14.53
2019-05-21T13:20:42.671Z,15.07
2019-05-21T13:23:11.748Z,14.20
2019-05-21T13:25:40.550Z,14.93
2019-05-21T13:28:09.598Z,14.87
2019-05-21T13:30:38.518Z,14.63
2019-05-21T13:33:07.595Z,13.57
2019-05-21T13:35:36.507Z,14.33
2019-05-21T13:38:05.492Z,14.07
2019-05-21T13:40:34.398Z,13.83
2019-05-21T13:43:03.427Z,14.03
2019-05-21T13:45:32.335Z,13.20
2019-05-21T13:48:01.263Z,15.25
2019-05-21T13:50:30.168Z,13.90
2019-05-21T13:52:59.080Z,13.10
2019-05-21T13:55:27.993Z,13.37
2019-05-21T13:57:56.973Z,12.87
2019-05-21T14:00:28.292Z,13.50
2019-05-21T14:02:57.411Z,13.63
2019-05-21T14:05:26.374Z,13.93
2019-05-21T14:07:55.951Z,14.07
2019-05-21T14:10:25.330Z,13.50
2019-05-21T14:12:55.291Z,12.03
2019-05-21T14:15:24.122Z,12.70
2019-05-21T14:17:53.096Z,12.10
2019-05-21T14:20:22.015Z,13.83
2019-05-21T14:22:50.950Z,11.80
2019-05-21T14:25:19.826Z,13.03
2019-05-21T14:27:49.346Z,12.10
2019-05-21T14:30:18.850Z,11.60
2019-05-21T14:32:48.317Z,11.30
2019-05-21T14:35:17.201Z,11.97
2019-05-21T14:37:46.106Z,12.17
2019-05-21T14:40:30.503Z,11.53
2019-05-21T14:42:58.469Z,12.27
2019-05-21T14:45:12.879Z,12.03
2019-05-21T14:47:41.765Z,13.70
2019-05-21T14:50:10.713Z,14.97
2019-05-21T14:52:39.641Z,16.00
2019-05-21T14:55:08.745Z,18.67
2019-05-21T14:57:37.678Z,16.77
2019-05-21T15:00:10.489Z,16.87
2019-05-21T15:02:39.760Z,17.63
2019-05-21T15:05:08.435Z,17.90
2019-05-21T15:07:37.356Z,17.77
2019-05-21T15:10:06.509Z,17.50
2019-05-21T15:12:35.431Z,18.03
2019-05-21T15:15:04.890Z,18.23
2019-05-21T15:17:33.798Z,18.37
2019-05-21T15:20:04.534Z,18.33
2019-05-21T15:22:33.448Z,18.13
2019-05-21T15:25:02.369Z,18.17
2019-05-21T15:27:31.296Z,18.50
2019-05-21T15:30:00.251Z,17.93
2019-05-21T15:32:30.765Z,17.90
2019-05-21T15:34:58.177Z,17.23
2019-05-21T15:37:27.090Z,18.83
2019-05-21T15:39:56.033Z,18.27
2019-05-21T15:42:25.233Z,18.73
2019-05-21T15:44:54.163Z,20.27
2019-05-21T15:47:23.070Z,18.73
2019-05-21T15:49:51.974Z,19.53
2019-05-21T15:52:20.907Z,19.17
2019-05-21T15:54:49.816Z,20.27
2019-05-21T15:57:18.759Z,19.67
2019-05-21T15:59:47.630Z,18.73
2019-05-21T16:02:16.552Z,19.67
2019-05-21T16:04:45.435Z,18.13
2019-05-21T16:07:14.355Z,18.80
2019-05-21T16:09:43.257Z,19.40
2019-05-21T16:12:12.220Z,18.87
2019-05-21T16:14:41.157Z,18.80
2019-05-21T16:17:10.223Z,20.13
2019-05-21T16:19:39.221Z,20.33
2019-05-21T16:22:08.295Z,22.67
2019-05-21T16:24:37.198Z,18.73
2019-05-21T16:27:06.276Z,19.27
2019-05-21T16:29:35.164Z,23.32
2019-05-21T16:32:04.170Z,19.73
2019-05-21T16:34:33.095Z,20.00
2019-05-21T16:37:02.020Z,19.73
2019-05-21T16:39:30.950Z,19.00
2019-05-21T16:41:59.861Z,18.67
2019-05-21T16:44:28.773Z,18.23
2019-05-21T16:46:57.682Z,18.63
2019-05-21T16:49:26.613Z,18.87
2019-05-21T16:51:55.584Z,18.90
2019-05-21T16:54:24.494Z,21.00
2019-05-21T16:56:53.403Z,18.70
2019-05-21T16:59:22.331Z,16.57
2019-05-21T17:01:51.310Z,20.97
2019-05-21T17:04:20.232Z,20.20
2019-05-21T17:06:49.122Z,18.33
2019-05-21T17:09:18.049Z,17.17
2019-05-21T17:11:58.941Z,16.67
2019-05-21T17:14:15.844Z,20.68
2019-05-21T17:16:44.796Z,18.07
2019-05-21T17:19:13.720Z,16.80
2019-05-21T17:21:42.630Z,17.53
2019-05-21T17:24:11.566Z,17.77
2019-05-21T17:26:42.863Z,17.07
2019-05-21T17:29:09.510Z,18.30
2019-05-21T17:31:38.444Z,17.20
2019-05-21T17:34:07.451Z,18.43
2019-05-21T17:36:36.363Z,18.17
2019-05-21T17:39:06.054Z,17.87
2019-05-21T17:41:34.968Z,21.65
2019-05-21T17:44:03.922Z,18.80
2019-05-21T17:46:32.850Z,18.37
2019-05-21T17:49:01.745Z,18.57
2019-05-21T17:51:30.679Z,20.17
2019-05-21T17:53:59.570Z,22.65
2019-05-21T17:56:28.491Z,20.43
2019-05-21T17:58:57.431Z,20.40
2019-05-21T18:01:26.337Z,20.13
2019-05-21T18:03:55.241Z,20.90
2019-05-21T18:06:24.903Z,20.83
2019-05-21T18:08:53.819Z,21.87
2019-05-21T18:11:22.741Z,21.83
2019-05-21T18:13:51.703Z,22.93
2019-05-21T18:16:20.709Z,24.23
2019-05-21T18:18:49.936Z,23.30
2019-05-21T18:21:18.854Z,25.50
2019-05-21T18:23:47.755Z,22.73
2019-05-21T18:26:16.666Z,23.60
2019-05-21T18:28:45.548Z,23.73
2019-05-21T18:31:14.509Z,23.07
2019-05-21T18:33:43.417Z,24.63
2019-05-21T18:36:12.594Z,25.00
2019-05-21T18:38:41.803Z,30.33
2019-05-21T18:41:10.738Z,26.30
2019-05-21T18:43:40.311Z,24.37
2019-05-21T18:46:09.194Z,26.83
2019-05-21T18:48:38.067Z,26.40
2019-05-21T18:51:07.092Z,25.87
2019-05-21T18:53:36.027Z,25.57
2019-05-21T18:56:05.077Z,25.53
2019-05-21T18:58:33.946Z,26.13
2019-05-21T19:01:02.881Z,24.30
2019-05-21T19:03:31.766Z,25.17
2019-05-21T19:06:00.719Z,26.07
2019-05-21T19:08:29.667Z,26.07
2019-05-21T19:10:58.582Z,25.73
2019-05-21T19:13:27.501Z,25.67
2019-05-21T19:15:56.431Z,27.33
2019-05-21T19:18:25.413Z,26.77
2019-05-21T19:20:55.022Z,24.30
2019-05-21T19:23:23.965Z,25.57
2019-05-21T19:25:52.890Z,25.30
2019-05-21T19:28:21.816Z,23.97
2019-05-21T19:30:50.760Z,23.80
2019-05-21T19:33:19.623Z,22.23
2019-05-21T19:35:48.563Z,22.60
2019-05-21T19:38:17.555Z,22.50
2019-05-21T19:40:46.474Z,27.98
2019-05-21T19:43:15.401Z,27.90
2019-05-21T19:45:44.312Z,25.77
2019-05-21T19:48:13.241Z,24.77
2019-05-21T19:50:42.147Z,25.30
2019-05-21T19:53:11.096Z,24.20
2019-05-21T19:55:40.156Z,24.23
2019-05-21T19:58:09.145Z,23.93
2019-05-21T20:00:41.201Z,24.47
2019-05-21T20:03:10.382Z,25.47
2019-05-21T20:05:40.234Z,22.90
2019-05-21T20:08:09.233Z,24.63
2019-05-21T20:10:38.495Z,23.00
2019-05-21T20:13:07.568Z,23.37
2019-05-21T20:15:36.470Z,22.87
2019-05-21T20:18:07.697Z,20.70
2019-05-21T20:20:34.390Z,20.93
2019-05-21T20:23:03.482Z,20.87
2019-05-21T20:25:32.660Z,20.07
2019-05-21T20:28:01.638Z,19.13
2019-05-21T20:30:30.491Z,18.63
2019-05-21T20:32:59.387Z,17.20
2019-05-21T20:35:28.288Z,16.83
2019-05-21T20:37:57.325Z,16.73
2019-05-21T20:40:26.236Z,16.33
2019-05-21T20:42:55.684Z,14.53
2019-05-21T20:45:24.629Z,15.53
2019-05-21T20:47:53.570Z,19.55
2019-05-21T20:50:22.879Z,16.43
2019-05-21T20:52:51.799Z,16.50
2019-05-21T20:55:20.691Z,19.03
2019-05-21T20:57:49.642Z,19.97
2019-05-21T21:00:20.480Z,20.80
2019-05-21T21:02:49.476Z,21.07
2019-05-21T21:05:18.384Z,24.03
2019-05-21T21:07:47.313Z,25.00
2019-05-21T21:10:16.251Z,25.57
2019-05-21T21:12:47.981Z,26.63
2019-05-21T21:15:16.857Z,28.90
2019-05-21T21:17:45.775Z,29.33
2019-05-21T21:20:14.857Z,29.00
2019-05-21T21:22:43.791Z,29.03
2019-05-21T21:25:12.737Z,29.90
2019-05-21T21:27:41.636Z,36.85
2019-05-21T21:30:10.593Z,29.70
2019-05-21T21:32:39.492Z,29.67
2019-05-21T21:35:09.468Z,29.90
2019-05-21T21:37:38.371Z,27.77
2019-05-21T21:40:07.705Z,26.37
2019-05-21T21:42:36.582Z,27.60
2019-05-21T21:45:05.650Z,27.47
2019-05-21T21:47:34.586Z,25.87
2019-05-21T21:50:03.657Z,31.55
2019-05-21T21:52:32.557Z,26.57
2019-05-21T21:55:01.472Z,25.77
2019-05-21T21:57:30.405Z,25.97
2019-05-21T21:59:59.303Z,25.67
2019-05-21T22:02:29.118Z,25.53
2019-05-21T22:04:58.052Z,26.60
2019-05-21T22:07:27.006Z,27.33
2019-05-21T22:09:56.078Z,27.20
2019-05-21T22:12:25.108Z,28.67
2019-05-21T22:14:55.386Z,28.20
2019-05-21T22:17:24.366Z,27.03
2019-05-21T22:19:53.290Z,24.27
2019-05-21T22:22:22.239Z,23.67
2019-05-21T22:24:51.123Z,30.10
2019-05-21T22:27:20.023Z,23.37
2019-05-21T22:29:48.967Z,20.50
2019-05-21T22:32:17.894Z,18.27
2019-05-21T22:34:46.830Z,17.80
2019-05-21T22:37:17.676Z,19.23
2019-05-21T22:39:46.595Z,18.10
2019-05-21T22:42:15.501Z,18.80
2019-05-21T22:44:44.442Z,18.10
2019-05-21T22:47:13.358Z,17.30
2019-05-21T22:49:42.253Z,17.13
2019-05-21T22:52:11.197Z,16.33
2019-05-21T22:54:40.122Z,15.73
2019-05-21T22:57:09.091Z,14.67
2019-05-21T22:59:37.966Z,14.60
2019-05-21T23:02:08.600Z,14.97
2019-05-21T23:04:37.523Z,15.00
2019-05-21T23:07:06.487Z,15.10
2019-05-21T23:09:35.376Z,18.55
2019-05-21T23:12:04.268Z,15.07
2019-05-21T23:14:33.209Z,14.73
2019-05-21T23:17:02.119Z,15.27
2019-05-21T23:19:31.047Z,14.90
2019-05-21T23:22:00.196Z,14.23
2019-05-21T23:24:29.120Z,13.93
2019-05-21T23:26:58.024Z,13.90
2019-05-21T23:29:26.954Z,13.57
2019-05-21T23:31:55.851Z,13.67
2019-05-21T23:34:24.737Z,16.90
2019-05-21T23:36:53.704Z,15.00
2019-05-21T23:39:28.126Z,13.67
2019-05-21T23:41:57.052Z,14.47
2019-05-21T23:44:25.947Z,12.47
2019-05-21T23:46:54.886Z,13.17
2019-05-21T23:49:23.813Z,12.87
2019-05-21T23:51:52.721Z,13.43
2019-05-21T23:54:21.637Z,12.80
2019-05-21T23:56:50.522Z,13.17
2019-05-21T23:59:19.981Z,13.57
